Time;durP1;ratioP1;P1;durP2;ratioP2;P2;SDS_P1;SDS_P2;PMS_P1;PMS_P2;Temp;Humidity;BMP_temperature;BMP_pressure;BME280_temperature;BME280_humidity;BME280_pressure;Samples;Min_cycle;Max_cycle;Signal;HPM_P1;HPM_P2
2023/06/25 00:00:56;;;;;;;6.23;5.83;;;;;;;;;;5031484;28;20420;-62
2023/06/25 00:03:23;;;;;;;6.20;5.90;;;;;;;;;;5032371;28;20410;-62
2023/06/25 00:05:49;;;;;;;7.30;6.33;;;;;;;;;;5031791;28;20621;-62
2023/06/25 00:08:15;;;;;;;6.07;5.80;;;;;;;;;;5031826;28;20882;-62
2023/06/25 00:10:41;;;;;;;6.20;5.90;;;;;;;;;;5031374;28;20412;-62
2023/06/25 00:13:09;;;;;;;6.80;6.40;;;;;;;;;;5031946;28;20495;-62
2023/06/25 00:15:35;;;;;;;7.17;6.67;;;;;;;;;;5031652;28;20852;-62
2023/06/25 00:18:01;;;;;;;6.27;5.87;;;;;;;;;;5031826;28;20431;-62
2023/06/25 00:20:28;;;;;;;7.17;6.67;;;;;;;;;;5031868;28;20474;-62
2023/06/25 00:22:54;;;;;;;6.67;6.07;;;;;;;;;;5031664;28;20467;-62
2023/06/25 00:25:20;;;;;;;6.47;5.97;;;;;;;;;;5031608;28;20474;-62
2023/06/25 00:27:47;;;;;;;6.70;6.30;;;;;;;;;;5031672;28;20408;-62
2023/06/25 00:30:19;;;;;;;6.40;6.03;;;;;;;;;;5032325;28;20422;-62
2023/06/25 00:32:45;;;;;;;6.13;5.60;;;;;;;;;;5031888;28;20402;-62
2023/06/25 00:35:12;;;;;;;6.13;5.83;;;;;;;;;;5031879;28;20414;-62
2023/06/25 00:37:41;;;;;;;5.83;5.60;;;;;;;;;;5031500;28;20418;-62
2023/06/25 00:40:10;;;;;;;6.67;6.17;;;;;;;;;;5031521;28;20461;-62
2023/06/25 00:42:42;;;;;;;5.80;5.50;;;;;;;;;;5031593;28;20434;-62
2023/06/25 00:45:15;;;;;;;6.47;5.97;;;;;;;;;;5031962;28;20469;-62
2023/06/25 00:47:42;;;;;;;6.60;6.20;;;;;;;;;;5031376;28;20438;-62
2023/06/25 00:50:12;;;;;;;6.73;6.23;;;;;;;;;;5031490;28;20517;-62
2023/06/25 00:52:38;;;;;;;7.97;6.57;;;;;;;;;;5031403;28;20451;-62
2023/06/25 00:55:04;;;;;;;6.50;5.60;;;;;;;;;;5031756;28;20889;-62
2023/06/25 00:57:33;;;;;;;6.13;5.83;;;;;;;;;;5031692;28;20422;-62
2023/06/25 00:59:59;;;;;;;5.90;5.60;;;;;;;;;;5031531;28;20526;-62
2023/06/25 01:02:38;;;;;;;5.97;5.70;;;;;;;;;;5031600;28;20495;-62
2023/06/25 01:05:11;;;;;;;6.50;6.20;;;;;;;;;;5031687;28;20841;-62
2023/06/25 01:07:38;;;;;;;6.10;5.70;;;;;;;;;;5031586;28;20406;-62
2023/06/25 01:10:05;;;;;;;6.10;5.60;;;;;;;;;;5031369;28;20897;-62
2023/06/25 01:12:31;;;;;;;6.60;6.10;;;;;;;;;;5013819;28;20438;-62
2023/06/25 01:15:01;;;;;;;6.33;5.93;;;;;;;;;;5031430;28;20461;-62
2023/06/25 01:17:28;;;;;;;6.60;6.00;;;;;;;;;;5031458;28;21069;-62
2023/06/25 01:19:54;;;;;;;6.67;6.27;;;;;;;;;;5031654;28;20419;-62
2023/06/25 01:22:29;;;;;;;6.90;6.10;;;;;;;;;;5034815;28;20426;-62
2023/06/25 01:24:55;;;;;;;6.73;5.60;;;;;;;;;;5035257;28;20460;-62
2023/06/25 01:27:22;;;;;;;5.70;5.40;;;;;;;;;;5035278;28;20420;-62
2023/06/25 01:29:48;;;;;;;8.17;5.93;;;;;;;;;;5033904;28;20424;-62
2023/06/25 01:32:14;;;;;;;6.77;6.27;;;;;;;;;;5035193;28;20423;-62
2023/06/25 01:34:40;;;;;;;6.57;6.17;;;;;;;;;;5034863;28;20474;-66
2023/06/25 01:37:06;;;;;;;6.97;6.47;;;;;;;;;;5034422;28;20974;-65
2023/06/25 01:39:35;;;;;;;6.77;6.30;;;;;;;;;;5034793;28;20461;-65
2023/06/25 01:42:03;;;;;;;7.03;6.20;;;;;;;;;;5034790;28;20418;-65
2023/06/25 01:44:33;;;;;;;6.97;6.57;;;;;;;;;;5034678;28;20617;-65
2023/06/25 01:47:01;;;;;;;6.97;6.57;;;;;;;;;;5034750;28;20432;-63
2023/06/25 01:49:29;;;;;;;7.13;6.53;;;;;;;;;;5034520;28;20583;-63
2023/06/25 01:51:58;;;;;;;5.90;5.60;;;;;;;;;;5034946;28;20513;-63
2023/06/25 01:54:24;;;;;;;6.87;6.47;;;;;;;;;;5034737;28;20528;-63
2023/06/25 01:56:50;;;;;;;6.77;6.37;;;;;;;;;;5034910;28;20460;-63
2023/06/25 01:59:21;;;;;;;7.43;6.87;;;;;;;;;;5034382;28;20419;-63
2023/06/25 02:01:47;;;;;;;6.87;6.47;;;;;;;;;;5033006;28;20446;-63
2023/06/25 02:04:13;;;;;;;6.53;6.10;;;;;;;;;;5034177;28;20536;-63
2023/06/25 02:06:39;;;;;;;6.27;5.87;;;;;;;;;;5034610;28;20741;-63
2023/06/25 02:09:05;;;;;;;6.60;6.20;;;;;;;;;;5034384;28;20444;-64
2023/06/25 02:11:31;;;;;;;6.67;6.27;;;;;;;;;;5034347;28;20482;-64
2023/06/25 02:13:57;;;;;;;6.50;6.20;;;;;;;;;;5034312;28;20523;-63
2023/06/25 02:16:23;;;;;;;6.77;6.17;;;;;;;;;;5034291;28;20467;-63
2023/06/25 02:18:49;;;;;;;7.73;6.40;;;;;;;;;;5034231;28;21075;-63
2023/06/25 02:21:18;;;;;;;7.17;6.67;;;;;;;;;;5033775;28;21064;-63
2023/06/25 02:23:43;;;;;;;6.70;6.30;;;;;;;;;;5034169;28;20503;-63
2023/06/25 02:26:10;;;;;;;6.87;6.47;;;;;;;;;;5034129;28;20768;-63
2023/06/25 02:28:35;;;;;;;6.67;6.20;;;;;;;;;;5034294;28;20410;-63
2023/06/25 02:31:04;;;;;;;7.37;6.87;;;;;;;;;;5034054;28;20431;-63
2023/06/25 02:33:30;;;;;;;6.70;6.20;;;;;;;;;;5033145;28;20822;-63
2023/06/25 02:35:57;;;;;;;7.97;7.20;;;;;;;;;;5034128;28;20502;-63
2023/06/25 02:38:23;;;;;;;6.70;6.40;;;;;;;;;;5033772;28;20466;-63
2023/06/25 02:40:51;;;;;;;7.27;6.13;;;;;;;;;;5033680;28;20449;-63
2023/06/25 02:43:17;;;;;;;6.37;6.00;;;;;;;;;;5033818;28;20516;-63
2023/06/25 02:45:47;;;;;;;6.50;6.10;;;;;;;;;;5033874;28;20514;-63
2023/06/25 02:48:13;;;;;;;7.03;6.37;;;;;;;;;;5033647;28;20426;-63
2023/06/25 02:50:44;;;;;;;8.63;6.97;;;;;;;;;;5033424;28;20414;-63
2023/06/25 02:53:10;;;;;;;6.80;6.40;;;;;;;;;;5032326;28;20431;-63
2023/06/25 02:55:36;;;;;;;6.97;6.30;;;;;;;;;;5033851;28;20847;-63
2023/06/25 02:58:02;;;;;;;7.23;6.63;;;;;;;;;;5033423;28;20528;-63
2023/06/25 03:00:28;;;;;;;6.63;6.17;;;;;;;;;;5033443;28;20402;-63
2023/06/25 03:02:54;;;;;;;7.10;6.70;;;;;;;;;;5033436;28;20525;-63
2023/06/25 03:05:20;;;;;;;6.70;6.33;;;;;;;;;;5033399;28;20457;-63
2023/06/25 03:07:50;;;;;;;6.70;6.30;;;;;;;;;;5033292;28;20481;-65
2023/06/25 03:10:16;;;;;;;6.37;5.87;;;;;;;;;;5033190;28;20420;-64
2023/06/25 03:12:42;;;;;;;6.13;5.93;;;;;;;;;;5033347;28;20888;-64
2023/06/25 03:15:11;;;;;;;6.90;6.30;;;;;;;;;;5033492;28;20475;-64
2023/06/25 03:17:37;;;;;;;6.80;6.33;;;;;;;;;;5033262;28;20439;-64
2023/06/25 03:20:05;;;;;;;7.07;6.50;;;;;;;;;;5033124;28;20420;-64
2023/06/25 03:22:31;;;;;;;6.73;6.23;;;;;;;;;;5033001;28;20551;-64
2023/06/25 03:24:57;;;;;;;6.97;6.53;;;;;;;;;;5033004;28;21022;-64
2023/06/25 03:27:23;;;;;;;6.80;6.30;;;;;;;;;;5033033;28;20446;-64
2023/06/25 03:29:49;;;;;;;5.90;5.60;;;;;;;;;;5033242;28;20408;-64
2023/06/25 03:32:15;;;;;;;6.73;6.40;;;;;;;;;;5031816;28;20526;-64
2023/06/25 03:34:41;;;;;;;7.10;6.57;;;;;;;;;;5032829;28;20420;-64
2023/06/25 03:37:07;;;;;;;6.80;6.13;;;;;;;;;;5032846;28;20424;-64
2023/06/25 03:39:36;;;;;;;5.93;5.63;;;;;;;;;;5032802;28;20444;-64
2023/06/25 03:42:07;;;;;;;9.27;7.17;;;;;;;;;;5032407;28;20451;-64
2023/06/25 03:44:36;;;;;;;7.43;6.83;;;;;;;;;;5030388;28;20470;-64
2023/06/25 03:47:05;;;;;;;6.67;6.10;;;;;;;;;;5032682;28;20510;-64
2023/06/25 03:49:31;;;;;;;8.13;7.00;;;;;;;;;;5032440;28;20415;-64
2023/06/25 03:51:57;;;;;;;7.10;6.50;;;;;;;;;;5032611;28;20408;-64
2023/06/25 03:54:25;;;;;;;7.37;6.77;;;;;;;;;;5032649;28;20846;-64
2023/06/25 03:56:56;;;;;;;6.70;6.20;;;;;;;;;;5032539;28;20422;-64
2023/06/25 03:59:22;;;;;;;7.70;7.00;;;;;;;;;;5031174;28;20452;-64
2023/06/25 04:01:48;;;;;;;7.03;6.63;;;;;;;;;;5031986;28;20509;-64
2023/06/25 04:04:14;;;;;;;6.90;6.30;;;;;;;;;;5032327;28;20931;-64
2023/06/25 04:06:40;;;;;;;6.90;6.50;;;;;;;;;;5032212;28;20426;-64
2023/06/25 04:09:06;;;;;;;6.60;6.20;;;;;;;;;;5031940;28;20442;-64
2023/06/25 04:11:32;;;;;;;7.60;6.90;;;;;;;;;;5032230;28;20420;-64
2023/06/25 04:13:59;;;;;;;6.83;6.33;;;;;;;;;;5032210;28;20523;-64
2023/06/25 04:16:25;;;;;;;6.60;6.17;;;;;;;;;;5032331;28;20490;-64
2023/06/25 04:18:50;;;;;;;7.03;6.60;;;;;;;;;;5032012;28;20527;-64
2023/06/25 04:21:16;;;;;;;7.50;6.90;;;;;;;;;;5031881;28;20563;-64
2023/06/25 04:23:46;;;;;;;7.40;6.90;;;;;;;;;;5031956;28;20425;-64
2023/06/25 04:26:12;;;;;;;7.00;6.57;;;;;;;;;;5030989;28;20495;-64
2023/06/25 04:28:38;;;;;;;6.90;6.40;;;;;;;;;;5032293;28;20879;-64
2023/06/25 04:31:04;;;;;;;8.00;6.20;;;;;;;;;;5032071;28;20832;-64
2023/06/25 04:33:30;;;;;;;7.93;6.83;;;;;;;;;;5031985;28;20408;-64
2023/06/25 04:35:56;;;;;;;7.40;6.73;;;;;;;;;;5030820;28;20573;-64
2023/06/25 04:38:24;;;;;;;7.40;6.80;;;;;;;;;;5031958;28;20446;-64
2023/06/25 04:40:50;;;;;;;7.70;7.10;;;;;;;;;;5032014;28;20480;-64
2023/06/25 04:43:16;;;;;;;7.83;6.50;;;;;;;;;;5032026;28;20532;-64
2023/06/25 04:45:42;;;;;;;9.43;7.60;;;;;;;;;;5031780;28;20469;-64
2023/06/25 04:48:10;;;;;;;7.20;6.70;;;;;;;;;;5031839;28;20549;-64
2023/06/25 04:50:36;;;;;;;8.17;7.37;;;;;;;;;;5031950;28;20884;-64
2023/06/25 04:53:02;;;;;;;7.60;7.00;;;;;;;;;;5031708;28;20418;-64
2023/06/25 04:55:31;;;;;;;8.83;7.47;;;;;;;;;;5032290;28;20990;-64
2023/06/25 04:57:57;;;;;;;6.80;6.40;;;;;;;;;;5035590;28;20412;-64
2023/06/25 05:00:23;;;;;;;7.00;6.60;;;;;;;;;;5035640;28;20436;-64
2023/06/25 05:02:48;;;;;;;8.80;7.00;;;;;;;;;;5036000;28;20483;-64
2023/06/25 05:05:14;;;;;;;7.77;7.07;;;;;;;;;;5035355;28;20990;-64
2023/06/25 05:07:40;;;;;;;7.13;6.53;;;;;;;;;;5035407;28;20415;-64
2023/06/25 05:10:07;;;;;;;7.80;7.30;;;;;;;;;;5035742;28;20405;-64
2023/06/25 05:12:33;;;;;;;7.10;6.70;;;;;;;;;;5035634;28;20910;-64
2023/06/25 05:14:59;;;;;;;7.93;7.20;;;;;;;;;;5034212;28;20508;-64
2023/06/25 05:17:25;;;;;;;7.93;7.23;;;;;;;;;;5035399;28;20427;-64
2023/06/25 05:19:50;;;;;;;7.90;7.30;;;;;;;;;;5035769;28;20752;-64
2023/06/25 05:22:19;;;;;;;8.50;7.90;;;;;;;;;;5035338;28;20449;-64
2023/06/25 05:24:45;;;;;;;8.30;7.70;;;;;;;;;;5035454;28;20831;-64
2023/06/25 05:27:13;;;;;;;7.50;7.00;;;;;;;;;;5034879;28;20591;-64
2023/06/25 05:29:39;;;;;;;8.03;7.33;;;;;;;;;;5035282;28;20471;-66
2023/06/25 05:32:05;;;;;;;7.73;7.07;;;;;;;;;;5035179;28;20813;-64
2023/06/25 05:34:31;;;;;;;7.57;7.10;;;;;;;;;;5035211;28;20472;-64
2023/06/25 05:36:57;;;;;;;7.70;7.20;;;;;;;;;;5034997;28;20420;-64
2023/06/25 05:39:28;;;;;;;7.67;7.03;;;;;;;;;;5035114;28;20437;-64
2023/06/25 05:41:55;;;;;;;8.90;8.20;;;;;;;;;;5034870;28;20453;-64
2023/06/25 05:44:20;;;;;;;7.77;6.90;;;;;;;;;;5034425;28;20439;-64
2023/06/25 05:46:46;;;;;;;8.40;7.73;;;;;;;;;;5034915;28;20411;-64
2023/06/25 05:49:15;;;;;;;7.07;6.37;;;;;;;;;;5034841;28;20779;-64
2023/06/25 05:51:41;;;;;;;8.10;6.93;;;;;;;;;;5034665;28;20411;-64
2023/06/25 05:54:07;;;;;;;7.40;6.80;;;;;;;;;;5034808;28;20775;-64
2023/06/25 05:56:33;;;;;;;8.60;7.67;;;;;;;;;;5035103;28;20483;-64
2023/06/25 05:58:59;;;;;;;7.60;6.90;;;;;;;;;;5034895;28;20428;-64
2023/06/25 06:01:25;;;;;;;8.07;7.30;;;;;;;;;;5034048;28;20442;-64
2023/06/25 06:03:52;;;;;;;8.17;7.53;;;;;;;;;;5034569;28;20408;-64
2023/06/25 06:06:18;;;;;;;8.03;7.43;;;;;;;;;;5034293;28;20478;-63
2023/06/25 06:08:46;;;;;;;7.97;7.37;;;;;;;;;;5033642;28;20442;-63
2023/06/25 06:11:12;;;;;;;8.13;7.47;;;;;;;;;;5034450;28;20428;-63
2023/06/25 06:13:38;;;;;;;17.00;15.37;;;;;;;;;;5033072;28;20511;-63
2023/06/25 06:16:04;;;;;;;16.77;15.10;;;;;;;;;;5032664;28;20507;-63
2023/06/25 06:18:30;;;;;;;7.50;6.90;;;;;;;;;;5034145;28;20436;-63
2023/06/25 06:20:56;;;;;;;9.63;7.07;;;;;;;;;;5033743;28;20426;-63
2023/06/25 06:23:22;;;;;;;6.90;6.50;;;;;;;;;;5034027;28;20988;-63
2023/06/25 06:25:48;;;;;;;6.53;6.13;;;;;;;;;;5033784;28;20560;-64
2023/06/25 06:28:16;;;;;;;7.10;6.60;;;;;;;;;;5033563;28;20420;-63
2023/06/25 06:30:45;;;;;;;6.10;5.70;;;;;;;;;;5032457;28;20459;-64
2023/06/25 06:33:11;;;;;;;6.40;5.90;;;;;;;;;;5033918;28;20421;-64
2023/06/25 06:35:38;;;;;;;6.57;5.80;;;;;;;;;;5033864;28;20419;-64
2023/06/25 06:38:04;;;;;;;5.47;5.10;;;;;;;;;;5033911;28;20471;-63
2023/06/25 06:40:30;;;;;;;6.40;6.10;;;;;;;;;;5033704;28;20486;-63
2023/06/25 06:42:56;;;;;;;6.83;6.27;;;;;;;;;;5033726;28;20456;-64
2023/06/25 06:45:24;;;;;;;6.10;5.80;;;;;;;;;;5033365;28;20509;-63
2023/06/25 06:47:50;;;;;;;6.90;6.30;;;;;;;;;;5033561;28;20450;-63
2023/06/25 06:50:18;;;;;;;7.03;6.43;;;;;;;;;;5033625;28;20449;-63
2023/06/25 06:52:45;;;;;;;7.77;7.17;;;;;;;;;;5033593;28;20437;-63
2023/06/25 06:55:11;;;;;;;7.60;7.00;;;;;;;;;;5033623;28;20788;-63
2023/06/25 06:57:37;;;;;;;7.30;6.80;;;;;;;;;;5032180;28;20445;-63
2023/06/25 07:00:06;;;;;;;16.40;14.90;;;;;;;;;;5033448;28;20422;-63
2023/06/25 07:02:32;;;;;;;12.23;9.87;;;;;;;;;;5033559;28;20420;-63
2023/06/25 07:04:58;;;;;;;6.30;6.00;;;;;;;;;;5033149;28;20466;-63
2023/06/25 07:07:27;;;;;;;8.73;7.40;;;;;;;;;;5033252;28;20435;-64
2023/06/25 07:09:58;;;;;;;7.20;6.77;;;;;;;;;;5033110;28;20448;-63
2023/06/25 07:12:24;;;;;;;6.87;6.30;;;;;;;;;;5033220;28;20482;-63
2023/06/25 07:14:50;;;;;;;7.77;7.07;;;;;;;;;;5032966;28;20463;-63
2023/06/25 07:17:19;;;;;;;7.33;6.93;;;;;;;;;;5032894;28;20412;-63
2023/06/25 07:19:45;;;;;;;9.40;7.13;;;;;;;;;;5032665;28;20422;-63
2023/06/25 07:22:11;;;;;;;9.93;7.53;;;;;;;;;;5033015;28;20497;-63
2023/06/25 07:24:37;;;;;;;7.47;7.03;;;;;;;;;;5032854;28;20564;-63
2023/06/25 07:27:03;;;;;;;7.20;6.60;;;;;;;;;;5031666;28;20462;-66
2023/06/25 07:29:29;;;;;;;6.80;6.50;;;;;;;;;;5032628;28;20882;-64
2023/06/25 07:31:55;;;;;;;8.03;7.53;;;;;;;;;;5032726;28;20506;-64
2023/06/25 07:34:22;;;;;;;7.37;6.73;;;;;;;;;;5032747;28;20756;-64
2023/06/25 07:36:48;;;;;;;11.60;10.50;;;;;;;;;;5032674;28;20429;-64
2023/06/25 07:39:23;;;;;;;7.03;6.63;;;;;;;;;;5032617;28;20439;-64
2023/06/25 07:41:49;;;;;;;6.87;6.13;;;;;;;;;;5032576;28;20442;-64
2023/06/25 07:44:15;;;;;;;6.53;5.93;;;;;;;;;;5032516;28;20512;-64
2023/06/25 07:46:42;;;;;;;6.60;6.20;;;;;;;;;;5032423;28;20441;-64
2023/06/25 07:49:08;;;;;;;5.87;5.67;;;;;;;;;;5032435;28;20419;-64
2023/06/25 07:51:34;;;;;;;6.70;6.10;;;;;;;;;;5032301;28;20892;-64
2023/06/25 07:54:02;;;;;;;6.13;5.40;;;;;;;;;;5032677;28;20406;-64
2023/06/25 07:56:28;;;;;;;7.67;5.60;;;;;;;;;;5032427;28;20413;-64
2023/06/25 07:58:54;;;;;;;6.03;5.63;;;;;;;;;;5032291;28;20459;-64
2023/06/25 08:01:20;;;;;;;6.23;5.50;;;;;;;;;;5032255;28;20491;-64
2023/06/25 08:03:46;;;;;;;8.33;6.50;;;;;;;;;;5032013;28;20770;-64
2023/06/25 08:06:12;;;;;;;5.80;5.50;;;;;;;;;;5031905;28;20476;-64
2023/06/25 08:08:38;;;;;;;5.53;5.27;;;;;;;;;;5032004;28;20852;-64
2023/06/25 08:11:05;;;;;;;5.80;5.40;;;;;;;;;;5031950;28;20876;-64
2023/06/25 08:13:33;;;;;;;5.07;4.80;;;;;;;;;;5032129;28;20423;-64
2023/06/25 08:15:59;;;;;;;5.27;5.07;;;;;;;;;;5032053;28;20784;-64
2023/06/25 08:18:25;;;;;;;5.70;5.30;;;;;;;;;;5031567;28;20413;-64
2023/06/25 08:20:53;;;;;;;5.63;5.33;;;;;;;;;;5031118;28;20521;-64
2023/06/25 08:23:30;;;;;;;5.93;5.43;;;;;;;;;;5031357;28;20897;-65
2023/06/25 08:25:59;;;;;;;8.63;5.10;;;;;;;;;;5031547;28;20477;-65
2023/06/25 08:28:25;;;;;;;5.30;5.00;;;;;;;;;;5031760;28;20413;-65
2023/06/25 08:30:51;;;;;;;5.80;5.40;;;;;;;;;;5031309;28;20437;-65
2023/06/25 08:33:19;;;;;;;4.87;4.57;;;;;;;;;;5032526;28;20481;-66
2023/06/25 08:35:46;;;;;;;4.63;4.47;;;;;;;;;;5031947;28;20435;-65
2023/06/25 08:38:17;;;;;;;5.53;5.13;;;;;;;;;;5032412;28;20412;-65
2023/06/25 08:40:45;;;;;;;4.70;4.50;;;;;;;;;;5032171;28;20564;-65
2023/06/25 08:43:12;;;;;;;5.13;4.93;;;;;;;;;;5032245;28;20418;-65
2023/06/25 08:45:42;;;;;;;4.70;4.40;;;;;;;;;;5032147;28;20467;-65
2023/06/25 08:48:12;;;;;;;4.93;4.73;;;;;;;;;;5031875;28;20967;-65
2023/06/25 08:50:39;;;;;;;5.07;4.93;;;;;;;;;;5031036;28;20916;-65
2023/06/25 08:53:05;;;;;;;11.77;9.73;;;;;;;;;;5030859;28;20822;-65
2023/06/25 08:55:32;;;;;;;4.80;4.60;;;;;;;;;;5030870;28;20449;-65
2023/06/25 08:58:00;;;;;;;4.97;4.70;;;;;;;;;;5032187;28;20451;-65
2023/06/25 09:00:26;;;;;;;5.83;5.40;;;;;;;;;;5031640;28;20426;-65
2023/06/25 09:02:53;;;;;;;4.70;4.50;;;;;;;;;;5032044;28;20508;-65
2023/06/25 09:05:26;;;;;;;4.77;4.40;;;;;;;;;;5032247;28;20529;-65
2023/06/25 09:07:52;;;;;;;4.83;4.63;;;;;;;;;;5031800;28;20885;-65
2023/06/25 09:10:21;;;;;;;4.23;4.13;;;;;;;;;;5031817;28;20454;-65
2023/06/25 09:12:53;;;;;;;5.50;4.27;;;;;;;;;;5030642;28;20493;-65
2023/06/25 09:15:22;;;;;;;4.40;4.30;;;;;;;;;;5032046;28;20909;-65
2023/06/25 09:17:49;;;;;;;4.70;4.50;;;;;;;;;;5032035;28;20451;-65
2023/06/25 09:20:18;;;;;;;8.40;7.87;;;;;;;;;;5031887;28;20493;-65
2023/06/25 09:22:54;;;;;;;5.53;5.33;;;;;;;;;;5030854;28;20805;-65
2023/06/25 09:25:21;;;;;;;5.23;4.87;;;;;;;;;;5031820;28;20977;-65
2023/06/25 09:27:49;;;;;;;4.20;4.10;;;;;;;;;;5031956;28;20435;-65
2023/06/25 09:30:17;;;;;;;5.60;5.33;;;;;;;;;;5030724;28;20424;-65
2023/06/25 09:32:53;;;;;;;5.10;4.90;;;;;;;;;;5032101;28;20423;-65
2023/06/25 09:35:22;;;;;;;5.30;5.10;;;;;;;;;;5031986;28;20753;-65
2023/06/25 09:37:52;;;;;;;4.97;4.60;;;;;;;;;;5032135;28;20803;-65
2023/06/25 09:40:21;;;;;;;4.33;4.23;;;;;;;;;;5030677;28;20514;-65
2023/06/25 09:42:48;;;;;;;4.77;4.47;;;;;;;;;;5032809;28;20511;-65
2023/06/25 09:45:17;;;;;;;5.17;4.67;;;;;;;;;;5035317;28;20466;-65
2023/06/25 09:47:45;;;;;;;4.40;4.30;;;;;;;;;;5035299;28;20838;-65
2023/06/25 09:50:24;;;;;;;4.70;4.40;;;;;;;;;;5035265;28;20754;-65
2023/06/25 09:52:56;;;;;;;4.80;4.60;;;;;;;;;;5035278;28;20419;-65
2023/06/25 09:55:26;;;;;;;4.50;4.20;;;;;;;;;;5035114;28;20937;-65
2023/06/25 09:57:53;;;;;;;5.20;4.93;;;;;;;;;;5034186;28;20554;-65
2023/06/25 10:00:20;;;;;;;4.60;4.40;;;;;;;;;;5034863;28;20419;-65
2023/06/25 10:02:52;;;;;;;4.90;4.60;;;;;;;;;;5034716;28;20440;-65
2023/06/25 10:05:18;;;;;;;4.70;4.50;;;;;;;;;;5034680;28;21027;-65
2023/06/25 10:07:44;;;;;;;4.80;4.60;;;;;;;;;;5034635;28;20523;-65
2023/06/25 10:10:22;;;;;;;4.03;3.83;;;;;;;;;;5034569;28;20514;-65
2023/06/25 10:12:51;;;;;;;4.30;4.20;;;;;;;;;;5034751;28;20489;-65
2023/06/25 10:15:47;;;;;;;4.50;4.30;;;;;;;;;;5034921;28;20407;-65
2023/06/25 10:18:22;;;;;;;7.07;4.17;;;;;;;;;;5013977;28;20467;-65
2023/06/25 10:20:50;;;;;;;4.57;4.33;;;;;;;;;;5033472;28;20439;-65
2023/06/25 10:23:24;;;;;;;4.43;4.33;;;;;;;;;;5034524;28;20423;-65
2023/06/25 10:26:02;;;;;;;3.87;3.77;;;;;;;;;;5035132;28;20448;-65
2023/06/25 10:28:31;;;;;;;4.30;4.20;;;;;;;;;;5034452;28;20782;-65
2023/06/25 10:30:59;;;;;;;4.53;4.30;;;;;;;;;;5034623;28;20427;-65
2023/06/25 10:33:25;;;;;;;4.43;4.13;;;;;;;;;;5034496;28;20415;-65
2023/06/25 10:35:55;;;;;;;4.37;4.27;;;;;;;;;;5034320;28;20427;-65
2023/06/25 10:38:22;;;;;;;4.30;4.20;;;;;;;;;;5034087;28;20432;-65
2023/06/25 10:40:49;;;;;;;3.83;3.70;;;;;;;;;;5034400;28;20400;-65
2023/06/25 10:43:18;;;;;;;3.90;3.80;;;;;;;;;;5032791;28;20474;-65
2023/06/25 10:45:48;;;;;;;4.17;4.07;;;;;;;;;;5033779;28;20909;-65
2023/06/25 10:48:14;;;;;;;3.97;3.80;;;;;;;;;;5033997;28;20503;-65
2023/06/25 10:50:42;;;;;;;3.83;3.73;;;;;;;;;;5033674;28;20919;-65
2023/06/25 10:53:11;;;;;;;3.77;3.63;;;;;;;;;;5033429;28;20891;-65
2023/06/25 10:55:41;;;;;;;3.80;3.70;;;;;;;;;;5033981;28;20861;-65
2023/06/25 10:58:07;;;;;;;3.60;3.60;;;;;;;;;;5034080;28;20474;-65
2023/06/25 11:00:33;;;;;;;3.90;3.77;;;;;;;;;;5033912;28;20423;-65
2023/06/25 11:02:59;;;;;;;4.50;4.20;;;;;;;;;;5033749;28;20436;-65
2023/06/25 11:05:37;;;;;;;3.97;3.87;;;;;;;;;;5033808;28;20829;-65
2023/06/25 11:08:04;;;;;;;4.00;3.90;;;;;;;;;;5033667;28;20509;-65
2023/06/25 11:10:31;;;;;;;4.37;4.27;;;;;;;;;;5033366;28;20474;-65
2023/06/25 11:12:59;;;;;;;4.13;3.90;;;;;;;;;;5032530;28;20523;-65
2023/06/25 11:15:30;;;;;;;3.90;3.83;;;;;;;;;;5032386;28;20535;-65
2023/06/25 11:17:56;;;;;;;4.77;4.60;;;;;;;;;;5033452;28;20443;-65
2023/06/25 11:20:27;;;;;;;4.53;4.33;;;;;;;;;;5033543;28;20903;-65
2023/06/25 11:23:01;;;;;;;4.50;4.40;;;;;;;;;;5033364;28;20412;-65
2023/06/25 11:25:30;;;;;;;4.30;4.10;;;;;;;;;;5033385;28;20461;-65
2023/06/25 11:28:09;;;;;;;3.73;3.63;;;;;;;;;;5033698;28;20593;-65
2023/06/25 11:30:35;;;;;;;4.40;4.20;;;;;;;;;;5032817;28;20412;-65
2023/06/25 11:33:08;;;;;;;3.80;3.70;;;;;;;;;;5033205;28;20558;-64
2023/06/25 11:35:34;;;;;;;4.50;4.00;;;;;;;;;;5033075;28;20424;-63
2023/06/25 11:38:03;;;;;;;3.77;3.67;;;;;;;;;;5031548;28;20807;-63
2023/06/25 11:40:32;;;;;;;3.87;3.77;;;;;;;;;;5033241;28;20422;-64
2023/06/25 11:42:58;;;;;;;3.93;3.83;;;;;;;;;;5031944;28;20443;-64
2023/06/25 11:45:27;;;;;;;4.83;3.80;;;;;;;;;;5032784;28;20853;-62
2023/06/25 11:47:55;;;;;;;3.73;3.63;;;;;;;;;;5033024;28;20423;-65
2023/06/25 11:50:24;;;;;;;4.57;4.27;;;;;;;;;;5032960;28;20412;-64
2023/06/25 11:52:57;;;;;;;3.77;3.67;;;;;;;;;;5032631;28;20451;-62
2023/06/25 11:55:23;;;;;;;4.33;4.17;;;;;;;;;;5031820;28;20490;-60
2023/06/25 11:57:49;;;;;;;4.10;3.93;;;;;;;;;;5032815;28;20412;-62
2023/06/25 12:00:15;;;;;;;4.17;4.07;;;;;;;;;;5032371;28;20193;-62
2023/06/25 12:02:44;;;;;;;4.40;4.30;;;;;;;;;;5032217;28;20515;-63
2023/06/25 12:05:10;;;;;;;5.13;4.20;;;;;;;;;;5031559;28;20463;-64
2023/06/25 12:07:38;;;;;;;7.20;4.53;;;;;;;;;;5030928;28;20435;-62
2023/06/25 12:10:04;;;;;;;4.07;3.97;;;;;;;;;;5032666;28;20934;-62
2023/06/25 12:12:33;;;;;;;3.83;3.73;;;;;;;;;;5032209;28;20416;-64
2023/06/25 12:15:01;;;;;;;4.30;4.20;;;;;;;;;;5032239;28;20418;-63
2023/06/25 12:17:27;;;;;;;4.30;4.20;;;;;;;;;;5030728;28;20454;-62
2023/06/25 12:19:53;;;;;;;3.80;3.70;;;;;;;;;;5032383;28;20907;-63
2023/06/25 12:22:19;;;;;;;4.20;3.80;;;;;;;;;;5030875;28;20185;-62
2023/06/25 12:24:45;;;;;;;4.10;4.00;;;;;;;;;;5032479;28;20466;-62
2023/06/25 12:27:11;;;;;;;3.60;3.50;;;;;;;;;;5032000;28;20412;-62
2023/06/25 12:29:37;;;;;;;3.97;3.87;;;;;;;;;;5032587;28;20174;-64
2023/06/25 12:32:03;;;;;;;3.87;3.77;;;;;;;;;;5032310;28;20404;-62
2023/06/25 12:34:31;;;;;;;4.33;4.23;;;;;;;;;;5032471;28;20466;-62
2023/06/25 12:37:00;;;;;;;3.93;3.80;;;;;;;;;;5031592;28;20413;-63
2023/06/25 12:39:28;;;;;;;3.63;3.63;;;;;;;;;;5021571;28;20789;-62
2023/06/25 12:41:54;;;;;;;3.43;3.43;;;;;;;;;;5022703;28;20424;-63
2023/06/25 12:44:20;;;;;;;3.90;3.90;;;;;;;;;;5024547;28;20442;-64
2023/06/25 12:46:46;;;;;;;5.83;4.30;;;;;;;;;;5032268;28;20215;-63
2023/06/25 12:49:14;;;;;;;4.73;4.10;;;;;;;;;;5032207;28;20435;-64
2023/06/25 12:51:40;;;;;;;4.47;4.10;;;;;;;;;;5032436;28;20515;-65
2023/06/25 12:54:06;;;;;;;4.40;4.30;;;;;;;;;;5032229;28;20486;-65
2023/06/25 12:56:32;;;;;;;3.90;3.80;;;;;;;;;;5032310;28;20411;-65
2023/06/25 12:59:01;;;;;;;4.50;4.40;;;;;;;;;;5032138;28;20201;-65
2023/06/25 13:01:27;;;;;;;4.73;4.40;;;;;;;;;;5032050;28;20813;-65
2023/06/25 13:03:53;;;;;;;4.20;4.10;;;;;;;;;;5031712;28;20422;-65
2023/06/25 13:06:20;;;;;;;4.40;4.10;;;;;;;;;;5030968;28;20459;-65
2023/06/25 13:08:46;;;;;;;4.73;4.43;;;;;;;;;;5032139;28;20511;-65
2023/06/25 13:11:12;;;;;;;4.10;3.90;;;;;;;;;;5032005;28;20428;-65
2023/06/25 13:13:41;;;;;;;4.97;4.67;;;;;;;;;;5031943;28;20815;-66
2023/06/25 13:16:07;;;;;;;4.37;4.27;;;;;;;;;;5031748;28;20812;-63
2023/06/25 13:18:35;;;;;;;4.70;4.60;;;;;;;;;;5035705;28;20443;-62
2023/06/25 13:21:01;;;;;;;5.00;4.90;;;;;;;;;;5035742;28;20472;-62
2023/06/25 13:23:29;;;;;;;4.30;4.20;;;;;;;;;;5035478;28;20795;-62
2023/06/25 13:25:55;;;;;;;4.23;4.13;;;;;;;;;;5035511;28;20463;-62
2023/06/25 13:28:24;;;;;;;4.27;3.97;;;;;;;;;;5035535;28;20408;-63
2023/06/25 13:30:50;;;;;;;4.40;4.10;;;;;;;;;;5035533;28;20506;-63
2023/06/25 13:33:19;;;;;;;4.37;4.20;;;;;;;;;;5035600;28;20558;-63
2023/06/25 13:35:45;;;;;;;4.37;4.27;;;;;;;;;;5035242;28;20423;-62
2023/06/25 13:38:13;;;;;;;4.60;4.50;;;;;;;;;;5035305;28;20412;-63
2023/06/25 13:40:39;;;;;;;4.60;4.50;;;;;;;;;;5035409;28;20439;-64
2023/06/25 13:43:05;;;;;;;4.40;4.27;;;;;;;;;;5035546;28;20419;-64
2023/06/25 13:45:31;;;;;;;4.03;3.83;;;;;;;;;;5035318;28;20495;-64
2023/06/25 13:47:59;;;;;;;4.47;4.37;;;;;;;;;;5035114;28;20260;-64
2023/06/25 13:50:25;;;;;;;4.50;4.40;;;;;;;;;;5035019;28;20411;-64
2023/06/25 13:52:51;;;;;;;4.50;4.40;;;;;;;;;;5034977;28;20499;-64
2023/06/25 13:55:17;;;;;;;4.73;4.53;;;;;;;;;;5034977;28;20439;-64
2023/06/25 13:57:43;;;;;;;4.50;4.40;;;;;;;;;;5034921;28;20434;-65
2023/06/25 14:00:09;;;;;;;4.53;4.33;;;;;;;;;;5034962;28;20431;-64
2023/06/25 14:02:35;;;;;;;5.00;4.90;;;;;;;;;;5035023;28;20887;-65
2023/06/25 14:05:03;;;;;;;4.67;4.57;;;;;;;;;;5034811;28;20513;-64
2023/06/25 14:07:29;;;;;;;4.67;4.53;;;;;;;;;;5034731;28;20185;-65
2023/06/25 14:09:58;;;;;;;4.93;4.50;;;;;;;;;;5034770;28;20456;-64
2023/06/25 14:12:24;;;;;;;6.20;4.60;;;;;;;;;;5034837;28;20419;-64
2023/06/25 14:14:50;;;;;;;5.13;4.83;;;;;;;;;;5034464;28;20424;-64
2023/06/25 14:17:18;;;;;;;4.30;4.20;;;;;;;;;;5034662;28;20911;-64
2023/06/25 14:19:44;;;;;;;4.47;4.30;;;;;;;;;;5034576;28;20205;-64
2023/06/25 14:22:12;;;;;;;5.00;4.87;;;;;;;;;;5034687;28;20428;-64
2023/06/25 14:24:38;;;;;;;4.90;4.50;;;;;;;;;;5034498;28;20450;-63
2023/06/25 14:27:07;;;;;;;5.30;5.17;;;;;;;;;;5033259;28;20416;-63
2023/06/25 14:29:35;;;;;;;6.20;5.00;;;;;;;;;;5032240;28;20197;-63
2023/06/25 14:32:01;;;;;;;5.10;4.90;;;;;;;;;;5034508;28;20440;-63
2023/06/25 14:34:29;;;;;;;5.20;4.87;;;;;;;;;;5034388;28;20977;-62
2023/06/25 14:36:55;;;;;;;4.57;4.47;;;;;;;;;;5034392;28;20413;-65
2023/06/25 14:39:24;;;;;;;4.37;4.17;;;;;;;;;;5033791;28;20404;-65
2023/06/25 14:41:50;;;;;;;4.80;4.60;;;;;;;;;;5034359;28;20903;-65
2023/06/25 14:44:18;;;;;;;5.23;5.03;;;;;;;;;;5034091;28;20499;-66